sensor_id;sensor_type;location;lat;lon;timestamp;temperature;humidity
13569;DHT22;6856;51.460;7.158;2023-05-07T00:01:55;19.30;57.00
13569;DHT22;6856;51.460;7.158;2023-05-07T00:04:29;19.30;57.20
13569;DHT22;6856;51.460;7.158;2023-05-07T00:07:08;19.30;57.30
13569;DHT22;6856;51.460;7.158;2023-05-07T00:09:42;19.30;57.20
13569;DHT22;6856;51.460;7.158;2023-05-07T00:12:18;19.30;57.40
13569;DHT22;6856;51.460;7.158;2023-05-07T00:14:52;19.20;57.30
13569;DHT22;6856;51.460;7.158;2023-05-07T00:17:26;19.20;57.40
13569;DHT22;6856;51.460;7.158;2023-05-07T00:20:00;19.20;57.50
13569;DHT22;6856;51.460;7.158;2023-05-07T00:22:34;19.20;57.60
13569;DHT22;6856;51.460;7.158;2023-05-07T00:25:08;19.20;57.70
13569;DHT22;6856;51.460;7.158;2023-05-07T00:27:44;19.20;57.80
13569;DHT22;6856;51.460;7.158;2023-05-07T00:30:19;19.10;57.80
13569;DHT22;6856;51.460;7.158;2023-05-07T00:32:52;19.10;57.80
13569;DHT22;6856;51.460;7.158;2023-05-07T00:35:26;19.10;57.80
13569;DHT22;6856;51.460;7.158;2023-05-07T00:38:01;19.10;57.80
13569;DHT22;6856;51.460;7.158;2023-05-07T00:40:38;19.10;57.80
13569;DHT22;6856;51.460;7.158;2023-05-07T00:43:14;19.10;57.90
13569;DHT22;6856;51.460;7.158;2023-05-07T00:45:49;19.10;57.90
13569;DHT22;6856;51.460;7.158;2023-05-07T00:48:24;19.00;57.80
13569;DHT22;6856;51.460;7.158;2023-05-07T00:50:59;19.00;57.80
13569;DHT22;6856;51.460;7.158;2023-05-07T00:53:33;19.00;57.80
13569;DHT22;6856;51.460;7.158;2023-05-07T00:56:07;19.00;58.00
13569;DHT22;6856;51.460;7.158;2023-05-07T00:58:43;19.00;58.00
13569;DHT22;6856;51.460;7.158;2023-05-07T01:01:17;19.00;58.00
13569;DHT22;6856;51.460;7.158;2023-05-07T01:03:51;19.00;58.00
13569;DHT22;6856;51.460;7.158;2023-05-07T01:06:27;19.00;58.00
13569;DHT22;6856;51.460;7.158;2023-05-07T01:09:06;19.00;58.10
13569;DHT22;6856;51.460;7.158;2023-05-07T01:11:42;19.00;58.10
13569;DHT22;6856;51.460;7.158;2023-05-07T01:14:19;19.00;58.20
13569;DHT22;6856;51.460;7.158;2023-05-07T01:16:53;18.90;58.20
13569;DHT22;6856;51.460;7.158;2023-05-07T01:19:29;18.90;58.20
13569;DHT22;6856;51.460;7.158;2023-05-07T01:22:07;18.90;58.30
13569;DHT22;6856;51.460;7.158;2023-05-07T01:24:44;18.90;58.50
13569;DHT22;6856;51.460;7.158;2023-05-07T01:27:18;18.80;58.50
13569;DHT22;6856;51.460;7.158;2023-05-07T01:29:53;18.80;58.50
13569;DHT22;6856;51.460;7.158;2023-05-07T01:32:31;18.80;58.60
13569;DHT22;6856;51.460;7.158;2023-05-07T01:35:11;18.80;58.70
13569;DHT22;6856;51.460;7.158;2023-05-07T01:37:49;18.80;58.70
13569;DHT22;6856;51.460;7.158;2023-05-07T01:40:27;18.80;59.30
13569;DHT22;6856;51.460;7.158;2023-05-07T01:43:01;18.80;58.80
13569;DHT22;6856;51.460;7.158;2023-05-07T01:45:36;18.80;58.90
13569;DHT22;6856;51.460;7.158;2023-05-07T01:48:11;18.80;58.90
13569;DHT22;6856;51.460;7.158;2023-05-07T01:50:45;18.80;59.00
13569;DHT22;6856;51.460;7.158;2023-05-07T01:53:20;18.80;59.00
13569;DHT22;6856;51.460;7.158;2023-05-07T01:55:55;18.70;59.10
13569;DHT22;6856;51.460;7.158;2023-05-07T01:58:29;18.70;59.10
13569;DHT22;6856;51.460;7.158;2023-05-07T02:01:04;18.70;59.00
13569;DHT22;6856;51.460;7.158;2023-05-07T02:03:38;18.70;59.00
13569;DHT22;6856;51.460;7.158;2023-05-07T02:06:12;18.70;59.00
13569;DHT22;6856;51.460;7.158;2023-05-07T02:08:47;18.70;59.10
13569;DHT22;6856;51.460;7.158;2023-05-07T02:11:23;18.70;59.30
13569;DHT22;6856;51.460;7.158;2023-05-07T02:13:57;18.70;59.20
13569;DHT22;6856;51.460;7.158;2023-05-07T02:16:31;18.70;59.20
13569;DHT22;6856;51.460;7.158;2023-05-07T02:19:05;18.60;59.10
13569;DHT22;6856;51.460;7.158;2023-05-07T02:21:39;18.60;59.20
13569;DHT22;6856;51.460;7.158;2023-05-07T02:24:13;18.60;59.20
13569;DHT22;6856;51.460;7.158;2023-05-07T02:26:48;18.60;59.20
13569;DHT22;6856;51.460;7.158;2023-05-07T02:29:22;18.60;59.30
13569;DHT22;6856;51.460;7.158;2023-05-07T02:31:57;18.60;59.30
13569;DHT22;6856;51.460;7.158;2023-05-07T02:34:31;18.60;59.30
13569;DHT22;6856;51.460;7.158;2023-05-07T02:37:05;18.60;59.30
13569;DHT22;6856;51.460;7.158;2023-05-07T02:39:38;18.50;59.30
13569;DHT22;6856;51.460;7.158;2023-05-07T02:42:14;18.50;59.30
13569;DHT22;6856;51.460;7.158;2023-05-07T02:44:48;18.50;59.50
13569;DHT22;6856;51.460;7.158;2023-05-07T02:47:22;18.50;59.50
13569;DHT22;6856;51.460;7.158;2023-05-07T02:49:56;18.50;59.50
13569;DHT22;6856;51.460;7.158;2023-05-07T02:52:30;18.50;59.50
13569;DHT22;6856;51.460;7.158;2023-05-07T02:55:04;18.50;59.60
13569;DHT22;6856;51.460;7.158;2023-05-07T02:57:40;18.40;59.70
13569;DHT22;6856;51.460;7.158;2023-05-07T03:00:16;18.40;59.70
13569;DHT22;6856;51.460;7.158;2023-05-07T03:02:52;18.40;59.70
13569;DHT22;6856;51.460;7.158;2023-05-07T03:05:26;18.40;59.60
13569;DHT22;6856;51.460;7.158;2023-05-07T03:08:00;18.40;59.50
13569;DHT22;6856;51.460;7.158;2023-05-07T03:10:36;18.40;59.50
13569;DHT22;6856;51.460;7.158;2023-05-07T03:13:12;18.30;59.50
13569;DHT22;6856;51.460;7.158;2023-05-07T03:15:45;18.30;59.50
13569;DHT22;6856;51.460;7.158;2023-05-07T03:18:19;18.30;59.60
13569;DHT22;6856;51.460;7.158;2023-05-07T03:20:53;18.30;59.60
13569;DHT22;6856;51.460;7.158;2023-05-07T03:23:27;18.30;59.60
13569;DHT22;6856;51.460;7.158;2023-05-07T03:26:01;18.20;59.60
13569;DHT22;6856;51.460;7.158;2023-05-07T03:28:37;18.20;59.60
13569;DHT22;6856;51.460;7.158;2023-05-07T03:31:11;18.20;59.70
13569;DHT22;6856;51.460;7.158;2023-05-07T03:33:51;18.20;59.80
13569;DHT22;6856;51.460;7.158;2023-05-07T03:36:26;18.20;60.10
13569;DHT22;6856;51.460;7.158;2023-05-07T03:39:00;18.20;60.10
13569;DHT22;6856;51.460;7.158;2023-05-07T03:41:34;18.20;60.10
13569;DHT22;6856;51.460;7.158;2023-05-07T03:44:10;18.10;60.10
13569;DHT22;6856;51.460;7.158;2023-05-07T03:46:44;18.10;60.20
13569;DHT22;6856;51.460;7.158;2023-05-07T03:49:18;18.10;60.20
13569;DHT22;6856;51.460;7.158;2023-05-07T03:51:53;18.10;60.30
13569;DHT22;6856;51.460;7.158;2023-05-07T03:54:27;18.10;60.30
13569;DHT22;6856;51.460;7.158;2023-05-07T03:57:01;18.10;60.20
13569;DHT22;6856;51.460;7.158;2023-05-07T03:59:37;18.00;60.10
13569;DHT22;6856;51.460;7.158;2023-05-07T04:02:11;18.00;60.00
13569;DHT22;6856;51.460;7.158;2023-05-07T04:04:45;18.00;60.00
13569;DHT22;6856;51.460;7.158;2023-05-07T04:07:19;18.00;60.10
13569;DHT22;6856;51.460;7.158;2023-05-07T04:09:54;18.00;60.20
13569;DHT22;6856;51.460;7.158;2023-05-07T04:12:29;18.00;60.30
13569;DHT22;6856;51.460;7.158;2023-05-07T04:15:07;18.00;60.40
13569;DHT22;6856;51.460;7.158;2023-05-07T04:17:47;18.00;60.70
13569;DHT22;6856;51.460;7.158;2023-05-07T04:20:21;17.90;60.60
13569;DHT22;6856;51.460;7.158;2023-05-07T04:22:55;18.00;60.80
13569;DHT22;6856;51.460;7.158;2023-05-07T04:25:29;17.90;61.10
13569;DHT22;6856;51.460;7.158;2023-05-07T04:28:03;17.90;61.20
13569;DHT22;6856;51.460;7.158;2023-05-07T04:30:39;17.90;61.40
13569;DHT22;6856;51.460;7.158;2023-05-07T04:33:14;17.90;61.60
13569;DHT22;6856;51.460;7.158;2023-05-07T04:35:48;17.90;61.80
13569;DHT22;6856;51.460;7.158;2023-05-07T04:38:23;17.90;61.80
13569;DHT22;6856;51.460;7.158;2023-05-07T04:40:58;17.90;61.80
13569;DHT22;6856;51.460;7.158;2023-05-07T04:43:37;17.90;62.00
13569;DHT22;6856;51.460;7.158;2023-05-07T04:46:12;17.90;62.10
13569;DHT22;6856;51.460;7.158;2023-05-07T04:48:46;17.90;62.30
13569;DHT22;6856;51.460;7.158;2023-05-07T04:51:20;17.90;62.40
13569;DHT22;6856;51.460;7.158;2023-05-07T04:53:53;17.90;62.50
13569;DHT22;6856;51.460;7.158;2023-05-07T04:56:28;17.90;62.60
13569;DHT22;6856;51.460;7.158;2023-05-07T04:59:02;17.80;62.60
13569;DHT22;6856;51.460;7.158;2023-05-07T05:01:37;17.90;62.80
13569;DHT22;6856;51.460;7.158;2023-05-07T05:04:12;17.90;63.00
13569;DHT22;6856;51.460;7.158;2023-05-07T05:06:46;17.90;63.00
13569;DHT22;6856;51.460;7.158;2023-05-07T05:09:20;17.90;63.00
13569;DHT22;6856;51.460;7.158;2023-05-07T05:11:54;17.90;63.10
13569;DHT22;6856;51.460;7.158;2023-05-07T05:14:29;17.90;63.30
13569;DHT22;6856;51.460;7.158;2023-05-07T05:17:05;18.00;63.40
13569;DHT22;6856;51.460;7.158;2023-05-07T05:19:38;18.00;63.40
13569;DHT22;6856;51.460;7.158;2023-05-07T05:22:13;18.00;63.40
13569;DHT22;6856;51.460;7.158;2023-05-07T05:24:47;18.00;63.60
13569;DHT22;6856;51.460;7.158;2023-05-07T05:27:21;18.00;63.60
13569;DHT22;6856;51.460;7.158;2023-05-07T05:29:55;18.00;63.70
13569;DHT22;6856;51.460;7.158;2023-05-07T05:32:30;18.00;63.70
13569;DHT22;6856;51.460;7.158;2023-05-07T05:35:06;18.10;63.80
13569;DHT22;6856;51.460;7.158;2023-05-07T05:37:40;18.10;63.90
13569;DHT22;6856;51.460;7.158;2023-05-07T05:40:15;18.10;63.80
13569;DHT22;6856;51.460;7.158;2023-05-07T05:42:48;18.10;63.90
13569;DHT22;6856;51.460;7.158;2023-05-07T05:45:22;18.10;63.90
13569;DHT22;6856;51.460;7.158;2023-05-07T05:47:58;18.20;64.00
13569;DHT22;6856;51.460;7.158;2023-05-07T05:50:32;18.20;64.10
13569;DHT22;6856;51.460;7.158;2023-05-07T05:53:07;18.20;64.20
13569;DHT22;6856;51.460;7.158;2023-05-07T05:55:42;18.30;64.30
13569;DHT22;6856;51.460;7.158;2023-05-07T05:58:16;18.30;64.30
13569;DHT22;6856;51.460;7.158;2023-05-07T06:00:50;18.40;64.30
13569;DHT22;6856;51.460;7.158;2023-05-07T06:03:26;18.40;64.30
13569;DHT22;6856;51.460;7.158;2023-05-07T06:06:00;18.40;64.20
13569;DHT22;6856;51.460;7.158;2023-05-07T06:08:34;18.50;64.20
13569;DHT22;6856;51.460;7.158;2023-05-07T06:11:08;18.50;64.20
13569;DHT22;6856;51.460;7.158;2023-05-07T06:13:42;18.60;64.20
13569;DHT22;6856;51.460;7.158;2023-05-07T06:16:15;18.60;64.20
13569;DHT22;6856;51.460;7.158;2023-05-07T06:18:51;18.60;64.20
13569;DHT22;6856;51.460;7.158;2023-05-07T06:21:25;18.70;64.20
13569;DHT22;6856;51.460;7.158;2023-05-07T06:23:59;18.80;64.00
13569;DHT22;6856;51.460;7.158;2023-05-07T06:26:33;18.80;63.90
13569;DHT22;6856;51.460;7.158;2023-05-07T06:29:07;18.90;63.80
13569;DHT22;6856;51.460;7.158;2023-05-07T06:31:41;19.00;64.50
13569;DHT22;6856;51.460;7.158;2023-05-07T06:34:16;19.00;63.70
13569;DHT22;6856;51.460;7.158;2023-05-07T06:36:50;19.10;63.60
13569;DHT22;6856;51.460;7.158;2023-05-07T06:39:24;19.10;63.40
13569;DHT22;6856;51.460;7.158;2023-05-07T06:41:58;19.20;63.40
13569;DHT22;6856;51.460;7.158;2023-05-07T06:44:32;19.20;63.30
13569;DHT22;6856;51.460;7.158;2023-05-07T06:47:07;19.20;63.20
13569;DHT22;6856;51.460;7.158;2023-05-07T06:49:42;19.30;63.00
13569;DHT22;6856;51.460;7.158;2023-05-07T06:52:16;19.30;62.90
13569;DHT22;6856;51.460;7.158;2023-05-07T06:54:50;19.40;62.70
13569;DHT22;6856;51.460;7.158;2023-05-07T06:57:24;19.40;62.60
13569;DHT22;6856;51.460;7.158;2023-05-07T06:59:58;19.40;62.50
13569;DHT22;6856;51.460;7.158;2023-05-07T07:02:31;19.50;62.40
13569;DHT22;6856;51.460;7.158;2023-05-07T07:05:08;19.50;62.30
13569;DHT22;6856;51.460;7.158;2023-05-07T07:07:42;19.50;62.40
13569;DHT22;6856;51.460;7.158;2023-05-07T07:10:16;19.60;62.30
13569;DHT22;6856;51.460;7.158;2023-05-07T07:12:50;19.60;62.30
13569;DHT22;6856;51.460;7.158;2023-05-07T07:15:26;19.60;62.30
13569;DHT22;6856;51.460;7.158;2023-05-07T07:18:00;19.70;62.20
13569;DHT22;6856;51.460;7.158;2023-05-07T07:20:36;19.70;62.00
13569;DHT22;6856;51.460;7.158;2023-05-07T07:23:09;19.80;61.70
13569;DHT22;6856;51.460;7.158;2023-05-07T07:25:44;19.80;61.50
13569;DHT22;6856;51.460;7.158;2023-05-07T07:28:20;19.80;61.40
13569;DHT22;6856;51.460;7.158;2023-05-07T07:30:54;19.80;61.40
13569;DHT22;6856;51.460;7.158;2023-05-07T07:33:28;19.90;61.30
13569;DHT22;6856;51.460;7.158;2023-05-07T07:36:05;19.90;61.20
13569;DHT22;6856;51.460;7.158;2023-05-07T07:38:39;19.90;61.20
13569;DHT22;6856;51.460;7.158;2023-05-07T07:41:13;20.00;61.30
13569;DHT22;6856;51.460;7.158;2023-05-07T07:43:47;20.00;61.40
13569;DHT22;6856;51.460;7.158;2023-05-07T07:46:21;20.10;62.30
13569;DHT22;6856;51.460;7.158;2023-05-07T07:48:55;20.10;61.80
13569;DHT22;6856;51.460;7.158;2023-05-07T07:51:35;20.10;61.80
13569;DHT22;6856;51.460;7.158;2023-05-07T07:54:09;20.20;62.10
13569;DHT22;6856;51.460;7.158;2023-05-07T07:56:43;20.30;62.10
13569;DHT22;6856;51.460;7.158;2023-05-07T07:59:16;20.40;61.90
13569;DHT22;6856;51.460;7.158;2023-05-07T08:01:51;20.40;61.80
13569;DHT22;6856;51.460;7.158;2023-05-07T08:04:29;20.50;61.70
13569;DHT22;6856;51.460;7.158;2023-05-07T08:07:06;20.50;61.40
13569;DHT22;6856;51.460;7.158;2023-05-07T08:09:40;20.60;61.40
13569;DHT22;6856;51.460;7.158;2023-05-07T08:12:14;20.60;61.40
13569;DHT22;6856;51.460;7.158;2023-05-07T08:14:48;20.70;61.30
13569;DHT22;6856;51.460;7.158;2023-05-07T08:17:22;20.70;61.30
13569;DHT22;6856;51.460;7.158;2023-05-07T08:19:56;20.80;61.30
13569;DHT22;6856;51.460;7.158;2023-05-07T08:22:31;20.80;61.20
13569;DHT22;6856;51.460;7.158;2023-05-07T08:25:06;20.90;61.20
13569;DHT22;6856;51.460;7.158;2023-05-07T08:27:39;20.90;61.30
13569;DHT22;6856;51.460;7.158;2023-05-07T08:30:14;20.90;61.30
13569;DHT22;6856;51.460;7.158;2023-05-07T08:32:48;21.00;61.50
13569;DHT22;6856;51.460;7.158;2023-05-07T08:35:23;21.10;61.50
13569;DHT22;6856;51.460;7.158;2023-05-07T08:37:59;21.10;61.50
13569;DHT22;6856;51.460;7.158;2023-05-07T08:40:36;21.20;61.50
13569;DHT22;6856;51.460;7.158;2023-05-07T08:43:12;21.30;61.50
13569;DHT22;6856;51.460;7.158;2023-05-07T08:45:49;21.40;61.50
13569;DHT22;6856;51.460;7.158;2023-05-07T08:48:29;21.40;61.50
13569;DHT22;6856;51.460;7.158;2023-05-07T08:51:05;21.50;61.50
13569;DHT22;6856;51.460;7.158;2023-05-07T08:53:42;21.70;61.60
13569;DHT22;6856;51.460;7.158;2023-05-07T08:56:16;21.80;61.40
13569;DHT22;6856;51.460;7.158;2023-05-07T08:58:53;21.90;61.20
13569;DHT22;6856;51.460;7.158;2023-05-07T09:01:30;22.00;61.00
13569;DHT22;6856;51.460;7.158;2023-05-07T09:04:04;22.10;60.70
13569;DHT22;6856;51.460;7.158;2023-05-07T09:06:39;22.10;60.30
13569;DHT22;6856;51.460;7.158;2023-05-07T09:09:17;22.20;60.10
13569;DHT22;6856;51.460;7.158;2023-05-07T09:11:57;22.30;60.00
13569;DHT22;6856;51.460;7.158;2023-05-07T09:14:31;22.40;59.80
13569;DHT22;6856;51.460;7.158;2023-05-07T09:17:07;22.40;59.50
13569;DHT22;6856;51.460;7.158;2023-05-07T09:19:42;22.50;59.50
13569;DHT22;6856;51.460;7.158;2023-05-07T09:22:19;22.60;59.20
13569;DHT22;6856;51.460;7.158;2023-05-07T09:24:54;22.60;59.10
13569;DHT22;6856;51.460;7.158;2023-05-07T09:27:29;22.70;59.30
13569;DHT22;6856;51.460;7.158;2023-05-07T09:30:04;22.70;59.30
13569;DHT22;6856;51.460;7.158;2023-05-07T09:32:40;22.90;59.30
13569;DHT22;6856;51.460;7.158;2023-05-07T09:35:17;22.90;59.30
13569;DHT22;6856;51.460;7.158;2023-05-07T09:37:53;23.00;58.80
13569;DHT22;6856;51.460;7.158;2023-05-07T09:40:31;23.10;58.80
13569;DHT22;6856;51.460;7.158;2023-05-07T09:43:11;23.30;59.00
13569;DHT22;6856;51.460;7.158;2023-05-07T09:45:47;23.40;58.70
13569;DHT22;6856;51.460;7.158;2023-05-07T09:48:23;23.60;58.80
13569;DHT22;6856;51.460;7.158;2023-05-07T09:51:02;23.70;58.70
13569;DHT22;6856;51.460;7.158;2023-05-07T09:53:40;23.80;58.10
13569;DHT22;6856;51.460;7.158;2023-05-07T09:56:17;24.00;57.30
13569;DHT22;6856;51.460;7.158;2023-05-07T09:58:54;24.10;56.90
13569;DHT22;6856;51.460;7.158;2023-05-07T10:01:31;24.20;56.90
13569;DHT22;6856;51.460;7.158;2023-05-07T10:04:06;24.20;56.30
13569;DHT22;6856;51.460;7.158;2023-05-07T10:06:42;24.30;56.20
13569;DHT22;6856;51.460;7.158;2023-05-07T10:09:18;24.30;55.80
13569;DHT22;6856;51.460;7.158;2023-05-07T10:11:54;24.40;56.00
13569;DHT22;6856;51.460;7.158;2023-05-07T10:14:28;24.40;56.00
13569;DHT22;6856;51.460;7.158;2023-05-07T10:17:03;24.50;56.20
13569;DHT22;6856;51.460;7.158;2023-05-07T10:19:38;24.50;56.00
13569;DHT22;6856;51.460;7.158;2023-05-07T10:22:14;24.60;56.00
13569;DHT22;6856;51.460;7.158;2023-05-07T10:24:52;24.70;55.70
13569;DHT22;6856;51.460;7.158;2023-05-07T10:27:30;24.70;55.50
13569;DHT22;6856;51.460;7.158;2023-05-07T10:30:12;24.80;55.30
13569;DHT22;6856;51.460;7.158;2023-05-07T10:32:56;24.90;54.90
13569;DHT22;6856;51.460;7.158;2023-05-07T10:35:39;24.90;54.90
13569;DHT22;6856;51.460;7.158;2023-05-07T10:38:16;24.90;54.80
13569;DHT22;6856;51.460;7.158;2023-05-07T10:40:50;25.00;54.40
13569;DHT22;6856;51.460;7.158;2023-05-07T10:43:38;25.00;54.30
13569;DHT22;6856;51.460;7.158;2023-05-07T10:46:15;25.00;54.10
13569;DHT22;6856;51.460;7.158;2023-05-07T10:49:12;25.10;54.30
13569;DHT22;6856;51.460;7.158;2023-05-07T10:52:12;25.20;54.00
13569;DHT22;6856;51.460;7.158;2023-05-07T10:54:47;25.30;53.50
13569;DHT22;6856;51.460;7.158;2023-05-07T10:58:22;25.40;54.30
13569;DHT22;6856;51.460;7.158;2023-05-07T11:01:05;25.60;53.70
13569;DHT22;6856;51.460;7.158;2023-05-07T11:04:12;25.80;54.80
13569;DHT22;6856;51.460;7.158;2023-05-07T11:10:04;26.10;52.70
13569;DHT22;6856;51.460;7.158;2023-05-07T11:12:54;26.20;53.10
13569;DHT22;6856;51.460;7.158;2023-05-07T11:15:49;26.30;52.60
13569;DHT22;6856;51.460;7.158;2023-05-07T11:18:46;26.40;52.60
13569;DHT22;6856;51.460;7.158;2023-05-07T11:21:32;26.50;52.50
13569;DHT22;6856;51.460;7.158;2023-05-07T11:24:08;26.60;52.60
13569;DHT22;6856;51.460;7.158;2023-05-07T11:26:45;26.60;52.10
13569;DHT22;6856;51.460;7.158;2023-05-07T11:29:21;26.70;52.00
13569;DHT22;6856;51.460;7.158;2023-05-07T11:31:55;26.70;51.80
13569;DHT22;6856;51.460;7.158;2023-05-07T11:34:32;26.70;51.70
13569;DHT22;6856;51.460;7.158;2023-05-07T11:37:06;26.80;51.40
13569;DHT22;6856;51.460;7.158;2023-05-07T11:39:39;26.80;51.00
13569;DHT22;6856;51.460;7.158;2023-05-07T11:42:25;26.80;50.80
13569;DHT22;6856;51.460;7.158;2023-05-07T11:45:01;26.70;50.00
13569;DHT22;6856;51.460;7.158;2023-05-07T11:47:35;26.70;50.30
13569;DHT22;6856;51.460;7.158;2023-05-07T11:50:11;26.70;50.30
13569;DHT22;6856;51.460;7.158;2023-05-07T11:52:50;26.60;50.20
13569;DHT22;6856;51.460;7.158;2023-05-07T11:55:51;26.60;50.10
13569;DHT22;6856;51.460;7.158;2023-05-07T11:58:26;26.50;50.40
13569;DHT22;6856;51.460;7.158;2023-05-07T12:01:00;26.50;50.70
13569;DHT22;6856;51.460;7.158;2023-05-07T12:03:33;26.50;50.40
13569;DHT22;6856;51.460;7.158;2023-05-07T12:06:10;26.50;50.50
13569;DHT22;6856;51.460;7.158;2023-05-07T12:08:45;26.40;50.50
13569;DHT22;6856;51.460;7.158;2023-05-07T12:11:23;26.40;50.50
13569;DHT22;6856;51.460;7.158;2023-05-07T12:13:58;26.40;50.70
13569;DHT22;6856;51.460;7.158;2023-05-07T12:16:31;26.30;50.90
13569;DHT22;6856;51.460;7.158;2023-05-07T12:19:06;26.30;50.90
13569;DHT22;6856;51.460;7.158;2023-05-07T12:21:42;26.30;50.90
13569;DHT22;6856;51.460;7.158;2023-05-07T12:24:18;26.20;50.90
13569;DHT22;6856;51.460;7.158;2023-05-07T12:26:53;26.20;50.80
13569;DHT22;6856;51.460;7.158;2023-05-07T12:29:26;26.20;51.00
13569;DHT22;6856;51.460;7.158;2023-05-07T12:32:01;26.20;51.00
13569;DHT22;6856;51.460;7.158;2023-05-07T12:34:38;26.20;50.90
13569;DHT22;6856;51.460;7.158;2023-05-07T12:37:23;26.20;50.60
13569;DHT22;6856;51.460;7.158;2023-05-07T12:40:07;26.20;50.50
13569;DHT22;6856;51.460;7.158;2023-05-07T12:42:42;26.10;50.40
13569;DHT22;6856;51.460;7.158;2023-05-07T12:45:17;26.10;50.70
13569;DHT22;6856;51.460;7.158;2023-05-07T12:47:51;26.00;50.70
13569;DHT22;6856;51.460;7.158;2023-05-07T12:50:25;26.00;50.70
13569;DHT22;6856;51.460;7.158;2023-05-07T12:53:00;26.00;50.60
13569;DHT22;6856;51.460;7.158;2023-05-07T12:55:41;25.90;50.40
13569;DHT22;6856;51.460;7.158;2023-05-07T12:58:18;25.90;50.80
13569;DHT22;6856;51.460;7.158;2023-05-07T13:00:54;25.90;50.50
13569;DHT22;6856;51.460;7.158;2023-05-07T13:03:33;25.80;50.50
13569;DHT22;6856;51.460;7.158;2023-05-07T13:06:09;25.70;50.20
13569;DHT22;6856;51.460;7.158;2023-05-07T13:08:53;25.70;50.30
13569;DHT22;6856;51.460;7.158;2023-05-07T13:11:26;25.60;50.20
13569;DHT22;6856;51.460;7.158;2023-05-07T13:14:00;25.60;50.40
13569;DHT22;6856;51.460;7.158;2023-05-07T13:16:34;25.60;50.20
13569;DHT22;6856;51.460;7.158;2023-05-07T13:19:08;25.50;50.20
13569;DHT22;6856;51.460;7.158;2023-05-07T13:21:42;25.50;50.40
13569;DHT22;6856;51.460;7.158;2023-05-07T13:24:18;25.40;50.20
13569;DHT22;6856;51.460;7.158;2023-05-07T13:26:51;25.40;50.20
13569;DHT22;6856;51.460;7.158;2023-05-07T13:29:25;25.30;50.20
13569;DHT22;6856;51.460;7.158;2023-05-07T13:32:02;25.30;50.10
13569;DHT22;6856;51.460;7.158;2023-05-07T13:34:37;25.10;50.00
13569;DHT22;6856;51.460;7.158;2023-05-07T13:37:10;25.20;50.10
13569;DHT22;6856;51.460;7.158;2023-05-07T13:39:45;25.10;50.20
13569;DHT22;6856;51.460;7.158;2023-05-07T13:42:20;25.10;50.00
13569;DHT22;6856;51.460;7.158;2023-05-07T13:44:54;25.10;50.00
13569;DHT22;6856;51.460;7.158;2023-05-07T13:47:28;25.00;50.30
13569;DHT22;6856;51.460;7.158;2023-05-07T13:50:02;25.00;50.30
13569;DHT22;6856;51.460;7.158;2023-05-07T13:52:36;24.90;50.50
13569;DHT22;6856;51.460;7.158;2023-05-07T13:55:13;24.90;50.70
13569;DHT22;6856;51.460;7.158;2023-05-07T13:57:47;24.90;50.90
13569;DHT22;6856;51.460;7.158;2023-05-07T14:00:29;24.80;50.80
13569;DHT22;6856;51.460;7.158;2023-05-07T14:03:04;24.80;50.90
13569;DHT22;6856;51.460;7.158;2023-05-07T14:05:38;24.80;51.00
13569;DHT22;6856;51.460;7.158;2023-05-07T14:08:12;24.80;51.30
13569;DHT22;6856;51.460;7.158;2023-05-07T14:10:48;24.80;51.20
13569;DHT22;6856;51.460;7.158;2023-05-07T14:13:21;24.80;51.40
13569;DHT22;6856;51.460;7.158;2023-05-07T14:15:56;24.80;51.70
13569;DHT22;6856;51.460;7.158;2023-05-07T14:18:29;24.80;52.00
13569;DHT22;6856;51.460;7.158;2023-05-07T14:21:04;24.80;52.10
13569;DHT22;6856;51.460;7.158;2023-05-07T14:23:41;24.80;52.50
13569;DHT22;6856;51.460;7.158;2023-05-07T14:26:16;24.80;52.30
13569;DHT22;6856;51.460;7.158;2023-05-07T14:28:50;24.80;52.00
13569;DHT22;6856;51.460;7.158;2023-05-07T14:31:24;24.80;52.00
13569;DHT22;6856;51.460;7.158;2023-05-07T14:33:59;24.80;51.90
13569;DHT22;6856;51.460;7.158;2023-05-07T14:36:34;24.70;51.90
13569;DHT22;6856;51.460;7.158;2023-05-07T14:39:07;24.70;52.00
13569;DHT22;6856;51.460;7.158;2023-05-07T14:41:43;24.70;52.00
13569;DHT22;6856;51.460;7.158;2023-05-07T14:44:16;24.70;51.90
13569;DHT22;6856;51.460;7.158;2023-05-07T14:46:50;24.60;51.60
13569;DHT22;6856;51.460;7.158;2023-05-07T14:49:24;24.60;51.60
13569;DHT22;6856;51.460;7.158;2023-05-07T14:51:59;24.50;51.80
13569;DHT22;6856;51.460;7.158;2023-05-07T14:54:34;24.50;51.70
13569;DHT22;6856;51.460;7.158;2023-05-07T14:57:11;24.50;51.70
13569;DHT22;6856;51.460;7.158;2023-05-07T14:59:48;24.40;51.90
13569;DHT22;6856;51.460;7.158;2023-05-07T15:02:22;24.40;52.00
13569;DHT22;6856;51.460;7.158;2023-05-07T15:04:56;24.40;52.30
13569;DHT22;6856;51.460;7.158;2023-05-07T15:07:30;24.30;52.40
13569;DHT22;6856;51.460;7.158;2023-05-07T15:10:07;24.30;52.80
13569;DHT22;6856;51.460;7.158;2023-05-07T15:12:43;24.30;52.80
13569;DHT22;6856;51.460;7.158;2023-05-07T15:15:17;24.30;52.90
13569;DHT22;6856;51.460;7.158;2023-05-07T15:17:51;24.30;53.10
13569;DHT22;6856;51.460;7.158;2023-05-07T15:20:26;24.30;53.20
13569;DHT22;6856;51.460;7.158;2023-05-07T15:23:00;24.20;53.30
13569;DHT22;6856;51.460;7.158;2023-05-07T15:25:35;24.20;53.40
13569;DHT22;6856;51.460;7.158;2023-05-07T15:28:11;24.20;53.50
13569;DHT22;6856;51.460;7.158;2023-05-07T15:30:44;24.20;53.70
13569;DHT22;6856;51.460;7.158;2023-05-07T15:33:18;24.20;53.60
13569;DHT22;6856;51.460;7.158;2023-05-07T15:35:54;24.20;53.80
13569;DHT22;6856;51.460;7.158;2023-05-07T15:38:31;24.20;54.00
13569;DHT22;6856;51.460;7.158;2023-05-07T15:41:05;24.20;54.20
13569;DHT22;6856;51.460;7.158;2023-05-07T15:43:44;24.20;54.30
13569;DHT22;6856;51.460;7.158;2023-05-07T15:46:22;24.20;54.60
13569;DHT22;6856;51.460;7.158;2023-05-07T15:48:57;24.20;54.40
13569;DHT22;6856;51.460;7.158;2023-05-07T15:51:35;24.20;54.30
13569;DHT22;6856;51.460;7.158;2023-05-07T15:54:08;24.20;54.30
13569;DHT22;6856;51.460;7.158;2023-05-07T15:56:42;24.20;54.00
13569;DHT22;6856;51.460;7.158;2023-05-07T15:59:17;24.20;53.80
13569;DHT22;6856;51.460;7.158;2023-05-07T16:01:51;24.20;53.50
13569;DHT22;6856;51.460;7.158;2023-05-07T16:04:26;24.10;53.40
13569;DHT22;6856;51.460;7.158;2023-05-07T16:07:00;24.10;53.40
13569;DHT22;6856;51.460;7.158;2023-05-07T16:09:35;24.00;53.30
13569;DHT22;6856;51.460;7.158;2023-05-07T16:12:18;24.00;53.40
13569;DHT22;6856;51.460;7.158;2023-05-07T16:15:07;24.00;53.30
13569;DHT22;6856;51.460;7.158;2023-05-07T16:17:52;24.00;53.30
13569;DHT22;6856;51.460;7.158;2023-05-07T16:20:29;23.90;53.20
13569;DHT22;6856;51.460;7.158;2023-05-07T16:23:03;23.90;53.10
13569;DHT22;6856;51.460;7.158;2023-05-07T16:25:38;23.90;53.00
13569;DHT22;6856;51.460;7.158;2023-05-07T16:28:13;23.80;53.10
13569;DHT22;6856;51.460;7.158;2023-05-07T16:30:49;23.80;53.20
13569;DHT22;6856;51.460;7.158;2023-05-07T16:33:23;23.80;53.10
13569;DHT22;6856;51.460;7.158;2023-05-07T16:35:57;23.80;53.00
13569;DHT22;6856;51.460;7.158;2023-05-07T16:38:31;23.80;53.00
13569;DHT22;6856;51.460;7.158;2023-05-07T16:41:07;23.80;53.20
13569;DHT22;6856;51.460;7.158;2023-05-07T16:43:42;23.80;53.10